Dernières infos :  

11/02/2019  Mise à jour des tableaux d'analyses décadaires : rubrique climatologie
04/02/2019 Mise en ligne de la synthèse climatologique de JANVIER : CLIQUEZ ICI
1/02/2019  Mise à jour des tableaux d'analyses décadaires, mensuelles et annuelles : rubrique climatologie
25/01/2019 Rajout de 2 tableaux : moyennes de minimales et des maximales, 
dans la page consacrée aux températures moyennes annuelles : 
CLIQUEZ ICI   

Si l'entête du tableau ne s'affiche pas correctement, => actualisez la page (F5 avec Internet Explorer, Chrome...).
Utilisez l'ascenseur sur la droite des lignes du tableau pour faire défiler verticalement les jours du mois.

TABLEAU DES DONNEES COMPLETES NOAA de JANVIER 2019

DATE TEMPERATURE
sous abri
TEMPARATURE 
au sol
VENT  et  Indice de Refroidissement Eolien  PRECIPITATIONS (en mm/m2)
et Intensité
PRESSION ATMOSPHERIQUE (en hPa) HUMIDITE de l'AIR RADIATIONS SOLAIRES (en W/m2)
Mini Moy. Maxi Mini Moy. Maxi Moyen Rafale I.R.E.
Minii
Précip. jour Cumul mois Intensité Maxi Mini Moy. Maxi Mini Moy. Maxi Pic maxi du jour Total jour
01/01/19 5.3° 5.9° 6.6° 5.7° 6.7° 4.5km/h dir NNE 17.7km/h dir ONO 3.6° 1.2 1.2 0mm/h 1032.3 1033.2 1033.9 91% 95.2% 97% 83 2 641
02/01/19 2.1° 4.6° 6.4° 0.6° 4.1° 7.2° 10.8km/h dir N 41.8km/h dir NNE -1.4° 0.8 2 1032.8 1034.8 1036.5 64% 84.6% 96% 455 17 477
03/01/19 -0.8° 1.5° 4.3° -1.7° 0.7° 15.1km/h dir N 40.2km/h dir N -5.3° 0 2 1034.4 1035.4 1036.4 62% 79.8% 93% 338 17 849
04/01/19 -0.4° 1.6° 5.3° -1.7° 0.6° 6.1° 12.4km/h dir N 37km/h dir N -5.4° 0 2 1034.1 1035.5 1037.3 71% 82.8% 91% 350 17 508
05/01/19 -0.4° 1.7° 2.9° -1.7° 1.3° 3.3° 3.1km/h dir ONO 17.7km/h dir ONO -2.1° 1.6 3.6 0mm/h 1034.5 1035.4 1036.7 89% 93.8% 96% 178 5 311
06/01/19 2.7° 3.1° 3.7° 2.2° 2.7° 3.9° 6.9km/h dir ONO 24.1km/h dir NO -0.2° 1.2 4.8 0mm/h 1033.8 1034.6 1035.3 88% 92.6% 96% 74 4 388
07/01/19 2.5° 3.4° 4.9° 2.2° 3.1° 5.6km/h dir ONO 20.9km/h dir ONO -0.6° 0 4.8 1033.4 1034.5 1035.3 82% 89.6% 93% 134 6 305
08/01/19 1.6° 3.2° 4.5° 2.8° 4.4° 2.7km/h dir SSE 19.3km/h dir SSE 0.2° 5.8 10.6 2.6mm/h 1023.5 1027.5 1033.4 91% 94.8% 96% 63 2 650
09/01/19 1.1° 2.6° 4.3° 0.6° 2.2° 5.6° 6.3km/h dir ONO 35.4km/h dir O -1.8° 3.6 14.2 6.4mm/h 1017.9 1020.1 1023.5 85% 93.1% 96% 352 7 277
10/01/19 0.7° 2.1° 4.2° -0.6° 1.6° 13.2km/h dir N 40.2km/h dir NNE -3.9° 0.2 14.4 1019.5 1022.4 1025.3 75% 86% 93% 431 17 200
11/01/19 -0.9° 0.9° 3.8° -1.7° 0.5° 8km/h dir N 27.4km/h dir O -5.1° 0 14.4 1025.2 1027.5 1029.8 70% 85.4% 92% 438 15 929
12/01/19 0.8° 5.2° 2.7° 5.6° 0.8km/h dir SSE 14.5km/h dir SSE 0.8° 4 18.4 2.4mm/h 1025 1028.5 1030.2 90% 93.9% 95% 146 5 772
13/01/19 3.7° 5.2° 7.1° 3.3° 4.9° 6.7° 5.6km/h dir SE 17.7km/h dir ESE 1.3° 19.4 37.8 8.4mm/h 1015.1 1020.6 1025 95% 96.1% 97% 63 2 193
14/01/19 4.3° 6.4° 8.2° 3.9° 6.1° 8.9° 3.5km/h dir ONO 46.7km/h dir NNE 2.2° 5.8 43.6 25mm/h 1014.6 1019 1024.5 82% 93.5% 97% 190 8 469
15/01/19 -1.4° 2.6° 8.6° -3.3° 1.4° 10° 1.1km/h dir NE 14.5km/h dir ONO -1.4° 0 43.6 1021.6 1023.8 1025.4 67% 91.2% 97% 390 17 090
16/01/19 -2.5° 4.4° 11.6° -4.4° 3.3° 11.7° 6.9km/h dir SSE 41.8km/h dir SSE -3.9° 0.2 43.8 1012.7 1016.3 1021.6 68% 84.7% 96% 450 19 610
17/01/19 0.7° 6.3° 9.9° -1.7° 5.4° 10.6° 4.8km/h dir SSE 30.6km/h dir SSE 0.7° 1 44.8 2.8mm/h 1011.4 1014 1017.3 69% 85.2% 95% 448 9 034
18/01/19 -2.7° 0.9° 3.6° -4.4° 0.2° 3.9° 5km/h dir NNE 24.1km/h dir NO -3.9° 1.6 46.4 2.6mm/h 1016.9 1017.9 1019.7 79% 90.7% 95% 394 14 999
19/01/19 -4.8° -1.8° 2.6° -6.1° -2.3° 4.4° 0.2km/h dir O 9.7km/h dir OSO -4.8° 0.2 46.6 1011.9 1014.6 1017.6 90% 94.6% 96% 497 15 844
20/01/19 -1.7° 1.7° 5.4° -2.8° 1.4° 6.1° 0.8km/h dir O 12.9km/h dir O -3.3° 0.2 46.8 1011.1 1013.2 1016.9 85% 93.6% 96% 267 9 317
21/01/19 0.3° 1.7° 2.7° 1.5° 2.2° 8km/h dir ONO 22.5km/h dir ONO -2.9° 0 46.8 1016.9 1018.9 1020.4 89% 93.5% 96% 90 3 602
22/01/19 -0.9° 0.5° 3.6° -2.2° 0.2° 5.6° 1.6km/h dir O 17.7km/h dir SSE -3.7° 0 46.8 1002.7 1011.1 1019.6 78% 87.5% 95% 436 15 447
23/01/19 -0.2° 0.8° 1.7° -1.1° 0.3° 2.2° 1.8km/h dir SE 14.5km/h dir ONO -2.3° 6.8 53.6 1.8mm/h 995 997.8 1002.7 92% 95% 96% 93 3 486
24/01/19 -1.1° 0.3° 1.9° -1.7° -0.1° 2.8° 10.8km/h dir N 32.2km/h dir N -4.8° 0 53.6 1001.2 1009.5 1016.1 78% 87% 93% 526 9 567
25/01/19 -4.4° -0.7° 2.8° -6.1° -1.3° 4.4° 2.6km/h dir NNE 19.3km/h dir ONO -4.7° 0 53.6 1016 1018.3 1021.4 69% 80% 89% 406 24 282
26/01/19 -0.2° 2.4° -0.6° 2.1° 5.6° 2.1km/h dir SE 16.1km/h dir ESE -1.2° 0.4 54 1008.9 1017 1021.4 83% 88.8% 93% 251 9 236
27/01/19 5.9° 9.8° 2.2° 5.4° 10° 10.9km/h dir SSE 43.5km/h dir SSE 1.2° 4.4 58.4 19.6mm/h 995 1001 1008.8 73% 83.8% 91% 489 10 216
28/01/19 1.7° 3.6° 6.1° 3.1° 7.2° 1.8km/h dir O 19.3km/h dir OSO 0.1° 0 58.4 1003.4 1006.3 1011.1 68% 82.8% 93% 543 13 267
29/01/19 0.6° 6.5° -0.6° 2.4° 7.2° 5km/h dir SE 56.3km/h dir SSE -3.2° 2.2 60.6 1.4mm/h 993.5 1005.8 1012.1 57% 80.4% 95% 418 22 201
30/01/19 1.6° 3.4° 5.4° 1.1° 6.1° 10.1km/h dir SSE 56.3km/h dir SSE -2.8° 3.2 63.8 2mm/h 992.7 1000.1 1004.1 68% 81.2% 93% 376 12 650
31/01/19 1.6° 4.9° 7.9° 1.1° 4.5° 8.3° 10.8km/h dir SSE 43.5km/h dir SE -1.7° 2.6 66.4 3.2mm/h 990.8 995.4 999.3 74% 86.2% 93% 499 13 439

RETOUR ACCUEIL


Date de création : 01/02/2019 : 06:20
Catégorie : ANNEE 2019 - MOIS PASSES - JANVIER 2019
Page lue 38 fois


Réactions à cet article

Personne n'a encore laissé de commentaire.
Soyez donc le premier !